Time;durP1;ratioP1;P1;durP2;ratioP2;P2;SDS_P1;SDS_P2;PMS_P1;PMS_P2;Temp;Humidity;BMP_temperature;BMP_pressure;BME280_temperature;BME280_humidity;BME280_pressure;Samples;Min_cycle;Max_cycle;Signal;HPM_P1;HPM_P2
2022/06/29 00:01:55;;;;;;;8.82;8.63;;;22.10;99.90;;;;;;5063641;28;20333;-79
2022/06/29 00:04:24;;;;;;;9.10;8.90;;;22.10;99.90;;;;;;5063763;28;20282;-79
2022/06/29 00:06:51;;;;;;;8.90;8.70;;;22.10;99.90;;;;;;5063547;28;20261;-79
2022/06/29 00:09:19;;;;;;;8.90;8.70;;;22.10;99.90;;;;;;5063346;28;20265;-79
2022/06/29 00:11:47;;;;;;;9.15;8.88;;;22.10;99.90;;;;;;5063688;28;20227;-79
2022/06/29 00:14:14;;;;;;;9.00;8.80;;;22.10;99.90;;;;;;5062644;28;20227;-78
2022/06/29 00:16:42;;;;;;;9.18;8.90;;;22.10;99.90;;;;;;5062173;28;20302;-79
2022/06/29 00:19:09;;;;;;;8.95;8.75;;;22.10;99.90;;;;;;5061901;28;20238;-79
2022/06/29 00:21:39;;;;;;;9.00;8.77;;;22.00;99.90;;;;;;5061137;28;20260;-79
2022/06/29 00:24:08;;;;;;;9.20;8.90;;;22.00;99.90;;;;;;5061959;28;20258;-81
2022/06/29 00:26:35;;;;;;;9.00;8.80;;;22.00;99.90;;;;;;5062585;28;20241;-81
2022/06/29 00:29:03;;;;;;;9.30;9.00;;;22.00;99.90;;;;;;5063119;28;20305;-81
2022/06/29 00:31:31;;;;;;;9.20;8.90;;;22.00;99.90;;;;;;5062995;28;20289;-81
2022/06/29 00:33:58;;;;;;;9.10;8.85;;;22.00;99.90;;;;;;5062900;28;20293;-81
2022/06/29 00:36:25;;;;;;;9.40;9.10;;;21.90;99.90;;;;;;5061568;28;20321;-81
2022/06/29 00:38:54;;;;;;;9.00;8.80;;;21.90;99.90;;;;;;5061938;28;20228;-81
2022/06/29 00:41:22;;;;;;;9.23;8.93;;;21.90;99.90;;;;;;5071017;28;20266;-81
2022/06/29 00:43:50;;;;;;;9.50;9.20;;;21.80;99.90;;;;;;5062683;28;20241;-81
2022/06/29 00:46:17;;;;;;;9.00;8.80;;;21.80;99.90;;;;;;5061901;28;20321;-81
2022/06/29 00:48:45;;;;;;;9.20;8.90;;;21.80;99.90;;;;;;5061246;28;20254;-81
2022/06/29 00:51:15;;;;;;;9.40;9.10;;;21.80;99.90;;;;;;5069001;28;20211;-80
2022/06/29 00:53:46;;;;;;;9.23;8.93;;;21.80;99.90;;;;;;5076649;28;20238;-80
2022/06/29 00:56:15;;;;;;;9.25;8.95;;;21.70;99.90;;;;;;5075784;28;20262;-81
2022/06/29 00:58:43;;;;;;;9.60;9.30;;;21.70;99.90;;;;;;5065183;28;20266;-79
2022/06/29 01:01:12;;;;;;;9.50;9.20;;;21.70;99.90;;;;;;5062709;28;20322;-79
2022/06/29 01:03:40;;;;;;;9.50;9.20;;;21.60;99.90;;;;;;5062449;28;20235;-79
2022/06/29 01:06:08;;;;;;;9.50;9.20;;;21.60;99.90;;;;;;5061977;28;20297;-78
2022/06/29 01:08:35;;;;;;;9.43;9.13;;;21.60;99.90;;;;;;5061541;28;20270;-79
2022/06/29 01:11:03;;;;;;;9.30;9.00;;;21.60;99.90;;;;;;5061643;28;20285;-79
2022/06/29 01:13:32;;;;;;;9.25;8.95;;;21.60;99.90;;;;;;5061868;28;20245;-79
2022/06/29 01:16:00;;;;;;;9.20;8.90;;;21.50;99.90;;;;;;5061212;28;20239;-79
2022/06/29 01:18:27;;;;;;;9.18;8.90;;;21.50;99.90;;;;;;5061442;28;20236;-79
2022/06/29 01:20:55;;;;;;;9.40;9.10;;;21.50;99.90;;;;;;5060438;28;20242;-79
2022/06/29 01:23:24;;;;;;;9.20;8.90;;;21.50;99.90;;;;;;5060610;28;20238;-79
2022/06/29 01:25:51;;;;;;;9.45;9.15;;;21.50;99.90;;;;;;5059963;28;20234;-79
2022/06/29 01:28:19;;;;;;;9.45;9.15;;;21.40;99.90;;;;;;5060396;28;20258;-79
2022/06/29 01:30:46;;;;;;;9.50;9.20;;;21.50;99.90;;;;;;5061092;28;20254;-79
2022/06/29 01:33:14;;;;;;;9.60;9.30;;;21.50;99.90;;;;;;5067131;28;20234;-79
2022/06/29 01:35:41;;;;;;;9.35;9.05;;;21.50;99.90;;;;;;5062693;28;20317;-79
2022/06/29 01:38:09;;;;;;;9.48;9.18;;;21.40;99.90;;;;;;5060860;28;20241;-79
2022/06/29 01:40:38;;;;;;;9.18;8.90;;;21.40;99.90;;;;;;5061067;28;20321;-79
2022/06/29 01:43:31;;;;;;;9.20;8.90;;;21.40;99.90;;;;;;5060524;28;20231;-79
2022/06/29 01:46:01;;;;;;;9.02;8.82;;;21.40;99.90;;;;;;5058484;28;20234;-79
2022/06/29 01:48:29;;;;;;;9.07;8.88;;;21.40;99.90;;;;;;5060684;28;20234;-78
2022/06/29 01:50:56;;;;;;;9.25;8.95;;;21.40;99.90;;;;;;5059823;28;20273;-79
2022/06/29 01:53:24;;;;;;;9.50;9.20;;;21.40;99.90;;;;;;5059859;28;20235;-79
2022/06/29 01:55:53;;;;;;;9.00;8.80;;;21.50;99.90;;;;;;5060339;28;20265;-79
2022/06/29 01:58:21;;;;;;;9.30;9.00;;;21.50;99.90;;;;;;5059587;28;20569;-78
2022/06/29 02:00:48;;;;;;;9.45;9.15;;;21.40;99.90;;;;;;5060013;28;20226;-79
2022/06/29 02:03:16;;;;;;;9.15;8.88;;;21.40;99.90;;;;;;5059981;28;20238;-79
2022/06/29 02:05:43;;;;;;;9.20;8.90;;;21.40;99.90;;;;;;5060651;28;20226;-79
2022/06/29 02:08:11;;;;;;;9.13;8.90;;;21.40;99.90;;;;;;5059430;28;21155;-79
2022/06/29 02:10:39;;;;;;;9.40;9.10;;;21.40;99.90;;;;;;5059835;28;20233;-79
2022/06/29 02:13:07;;;;;;;8.90;8.70;;;21.40;99.90;;;;;;5060886;28;20302;-79
2022/06/29 02:15:35;;;;;;;8.90;8.70;;;21.30;99.90;;;;;;5060346;28;20227;-78
2022/06/29 02:18:03;;;;;;;9.00;8.80;;;21.40;99.90;;;;;;5059471;28;20237;-79
2022/06/29 02:20:31;;;;;;;8.85;8.65;;;21.40;99.90;;;;;;5060480;28;20231;-79
2022/06/29 02:22:58;;;;;;;8.70;8.50;;;21.40;99.90;;;;;;5062187;28;20237;-79
2022/06/29 02:25:29;;;;;;;8.85;8.65;;;21.40;99.90;;;;;;5060320;28;20266;-79
2022/06/29 02:27:56;;;;;;;9.00;8.80;;;21.40;99.90;;;;;;5061346;28;20307;-79
2022/06/29 02:35:51;;;;;;;9.30;9.00;;;21.30;99.90;;;;;;5035749;28;20517;-79
2022/06/29 02:38:18;;;;;;;9.40;9.10;;;21.30;99.90;;;;;;5068498;28;20341;-79
2022/06/29 02:40:46;;;;;;;9.15;8.88;;;21.20;99.90;;;;;;5062739;28;20278;-79
2022/06/29 02:43:13;;;;;;;8.93;8.73;;;21.20;99.90;;;;;;5069376;28;20302;-78
2022/06/29 02:45:42;;;;;;;8.95;8.75;;;21.20;99.90;;;;;;5064482;28;20245;-79
2022/06/29 02:48:10;;;;;;;8.88;8.68;;;21.20;99.90;;;;;;5063927;28;20269;-78
2022/06/29 02:50:37;;;;;;;9.23;8.93;;;21.20;99.90;;;;;;5063422;28;20239;-78
2022/06/29 02:53:05;;;;;;;9.18;8.88;;;21.20;99.90;;;;;;5062231;28;20238;-79
2022/06/29 02:55:33;;;;;;;9.20;8.90;;;21.20;99.90;;;;;;5062460;28;20226;-79
2022/06/29 02:58:00;;;;;;;8.85;8.65;;;21.20;99.90;;;;;;5062014;28;20258;-78
2022/06/29 03:00:28;;;;;;;9.20;8.90;;;21.20;99.90;;;;;;5062098;28;20227;-79
2022/06/29 03:02:57;;;;;;;9.27;8.98;;;21.10;99.90;;;;;;5062322;28;20253;-79
2022/06/29 03:05:24;;;;;;;9.80;9.50;;;21.20;99.90;;;;;;5063423;28;20261;-78
2022/06/29 03:07:52;;;;;;;9.90;9.60;;;21.20;99.90;;;;;;5062297;28;20267;-79
2022/06/29 03:10:19;;;;;;;9.80;9.50;;;21.20;99.90;;;;;;5062510;28;20270;-79
2022/06/29 03:12:47;;;;;;;9.85;9.55;;;21.20;99.90;;;;;;5062104;28;20263;-79
2022/06/29 03:15:14;;;;;;;10.07;9.77;;;21.20;99.90;;;;;;5061807;28;20258;-78
2022/06/29 03:17:42;;;;;;;10.00;9.70;;;21.20;99.90;;;;;;5061055;28;20234;-79
2022/06/29 03:20:13;;;;;;;10.30;10.00;;;21.10;99.90;;;;;;5061666;28;20314;-79
2022/06/29 03:22:42;;;;;;;9.95;9.65;;;21.10;99.90;;;;;;5073065;28;20222;-78
2022/06/29 03:25:10;;;;;;;9.70;9.40;;;21.00;99.90;;;;;;5064619;28;20237;-79
2022/06/29 03:27:38;;;;;;;9.75;9.45;;;21.00;99.90;;;;;;5063196;28;20233;-79
2022/06/29 03:30:07;;;;;;;9.80;9.50;;;21.00;99.90;;;;;;5063286;28;20274;-79
2022/06/29 03:32:34;;;;;;;9.57;9.27;;;21.00;99.90;;;;;;5063522;28;20239;-79
2022/06/29 03:35:02;;;;;;;9.63;9.32;;;21.00;99.90;;;;;;5064103;28;20310;-79
2022/06/29 03:37:31;;;;;;;9.40;9.10;;;21.00;99.90;;;;;;5063192;28;20270;-79
2022/06/29 03:39:58;;;;;;;9.27;8.98;;;20.90;99.90;;;;;;5063405;28;20233;-79
2022/06/29 03:42:26;;;;;;;9.40;9.10;;;20.90;99.90;;;;;;5063636;28;20241;-79
2022/06/29 03:44:54;;;;;;;9.45;9.15;;;20.90;99.90;;;;;;5063497;28;20231;-79
2022/06/29 03:47:22;;;;;;;9.70;9.40;;;20.90;99.90;;;;;;5063085;28;20245;-79
2022/06/29 03:49:50;;;;;;;9.40;9.10;;;20.90;99.90;;;;;;5063328;28;20225;-79
2022/06/29 03:52:17;;;;;;;9.30;9.00;;;20.80;99.90;;;;;;5062923;28;20250;-79
2022/06/29 03:54:46;;;;;;;9.38;9.07;;;20.80;99.90;;;;;;5062300;28;20254;-79
2022/06/29 03:57:14;;;;;;;9.25;8.95;;;20.70;99.90;;;;;;5063101;28;20325;-79
2022/06/29 03:59:41;;;;;;;9.40;9.10;;;20.70;99.90;;;;;;5062258;28;20231;-78
2022/06/29 04:02:09;;;;;;;9.50;9.20;;;20.60;99.90;;;;;;5062749;28;20318;-79
2022/06/29 04:04:36;;;;;;;9.40;9.10;;;20.60;99.90;;;;;;5062583;28;20274;-79
2022/06/29 04:07:04;;;;;;;9.55;9.25;;;20.60;99.90;;;;;;5061816;28;20277;-79
2022/06/29 04:09:32;;;;;;;9.60;9.30;;;20.60;99.90;;;;;;5062713;28;20326;-79
2022/06/29 04:12:01;;;;;;;9.63;9.32;;;20.60;99.90;;;;;;5064253;28;20241;-79
2022/06/29 04:14:29;;;;;;;9.90;9.60;;;20.60;99.90;;;;;;5062267;28;20266;-79
2022/06/29 04:16:59;;;;;;;9.80;9.50;;;20.60;99.90;;;;;;5062150;28;20326;-79
2022/06/29 04:19:28;;;;;;;9.75;9.45;;;20.60;99.90;;;;;;5061563;28;20230;-79
2022/06/29 04:21:55;;;;;;;9.77;9.48;;;20.70;99.90;;;;;;5061466;28;20257;-79
2022/06/29 04:24:24;;;;;;;9.80;9.50;;;20.60;99.90;;;;;;5061099;28;20236;-79
2022/06/29 04:26:51;;;;;;;9.73;9.43;;;20.60;99.90;;;;;;5061011;28;20358;-79
2022/06/29 04:29:20;;;;;;;9.80;9.50;;;20.60;99.90;;;;;;5061515;28;20237;-79
2022/06/29 04:31:47;;;;;;;9.82;9.52;;;20.60;99.90;;;;;;5060667;28;20275;-79
2022/06/29 04:34:15;;;;;;;9.70;9.40;;;20.60;99.90;;;;;;5060995;28;20294;-79
2022/06/29 04:36:42;;;;;;;9.70;9.40;;;20.70;99.90;;;;;;5060649;28;20287;-79
2022/06/29 04:39:10;;;;;;;9.60;9.30;;;20.80;99.90;;;;;;5060794;28;20737;-78
2022/06/29 04:41:37;;;;;;;9.55;9.25;;;20.80;99.90;;;;;;5061541;28;20234;-79
2022/06/29 04:44:05;;;;;;;9.40;9.10;;;20.80;99.90;;;;;;5064271;28;20321;-79
2022/06/29 04:46:34;;;;;;;9.60;9.30;;;20.90;99.90;;;;;;5070927;28;20329;-79
2022/06/29 04:49:04;;;;;;;9.45;9.15;;;20.90;99.90;;;;;;5063479;28;20227;-79
2022/06/29 04:51:33;;;;;;;9.40;9.10;;;21.00;99.90;;;;;;5062898;28;20227;-79
2022/06/29 04:54:01;;;;;;;9.32;9.02;;;21.00;99.90;;;;;;5062758;28;20237;-79
2022/06/29 04:56:30;;;;;;;9.32;9.02;;;21.10;99.90;;;;;;5061668;28;20238;-79
2022/06/29 04:58:59;;;;;;;9.35;9.05;;;21.10;99.90;;;;;;5061838;28;20222;-79
2022/06/29 05:01:28;;;;;;;9.30;9.00;;;21.10;99.90;;;;;;5062385;28;20234;-79
2022/06/29 05:03:59;;;;;;;9.20;8.90;;;21.20;99.90;;;;;;5058608;28;20230;-87
2022/06/29 05:06:27;;;;;;;8.90;8.70;;;21.20;99.90;;;;;;5099471;22;20239;-79
2022/06/29 05:08:56;;;;;;;9.30;9.00;;;21.20;99.90;;;;;;5084179;28;20226;-80
2022/06/29 05:11:25;;;;;;;9.25;8.95;;;21.30;99.90;;;;;;5084786;28;20301;-81
2022/06/29 05:13:53;;;;;;;9.48;9.18;;;21.30;99.90;;;;;;5085010;28;20294;-81
2022/06/29 05:16:20;;;;;;;9.20;8.90;;;21.40;99.90;;;;;;5083203;28;20253;-81
2022/06/29 05:18:48;;;;;;;9.48;9.18;;;21.50;99.90;;;;;;5064133;28;20231;-81
2022/06/29 05:21:18;;;;;;;9.52;9.23;;;21.60;99.90;;;;;;5064821;28;20234;-81
2022/06/29 05:23:46;;;;;;;9.35;9.05;;;21.70;99.90;;;;;;5064508;28;20253;-81
2022/06/29 05:26:15;;;;;;;9.30;9.00;;;21.70;99.90;;;;;;5064914;28;20235;-81
2022/06/29 05:28:42;;;;;;;8.98;8.75;;;21.80;99.90;;;;;;5063781;28;20246;-81
2022/06/29 05:31:10;;;;;;;9.30;9.00;;;21.90;99.90;;;;;;5061787;28;20302;-80
2022/06/29 05:33:37;;;;;;;9.20;8.90;;;21.90;99.90;;;;;;5062600;28;20317;-81
2022/06/29 05:36:06;;;;;;;8.90;8.70;;;21.90;99.90;;;;;;5062524;28;20241;-81
2022/06/29 05:38:36;;;;;;;8.90;8.70;;;21.90;99.90;;;;;;5062285;28;20237;-81
2022/06/29 05:41:03;;;;;;;10.10;9.80;;;21.90;99.90;;;;;;5061344;28;20237;-80
2022/06/29 05:43:32;;;;;;;10.10;9.80;;;21.90;99.90;;;;;;5061409;28;20227;-81
2022/06/29 05:46:00;;;;;;;10.10;9.80;;;22.00;99.90;;;;;;5061032;28;20333;-81
2022/06/29 05:48:27;;;;;;;10.02;9.73;;;22.00;99.90;;;;;;5061552;28;20242;-81
2022/06/29 05:50:55;;;;;;;9.88;9.57;;;22.00;99.90;;;;;;5061789;28;20318;-81
2022/06/29 05:53:23;;;;;;;10.00;9.70;;;22.00;99.90;;;;;;5062807;28;20322;-81
2022/06/29 05:55:51;;;;;;;9.98;9.68;;;22.20;99.90;;;;;;5061847;28;20238;-81
2022/06/29 05:58:20;;;;;;;10.05;9.75;;;22.20;99.90;;;;;;5062318;28;20234;-81
2022/06/29 06:00:48;;;;;;;10.13;9.82;;;22.30;99.90;;;;;;5063096;28;20230;-81
2022/06/29 06:03:17;;;;;;;10.10;9.80;;;22.40;99.90;;;;;;5063484;28;20290;-81
2022/06/29 06:05:44;;;;;;;10.20;9.90;;;22.40;99.90;;;;;;5063682;28;20254;-81
2022/06/29 06:08:13;;;;;;;10.13;9.82;;;22.50;99.90;;;;;;5063625;28;20245;-81
2022/06/29 06:10:40;;;;;;;10.57;10.27;;;22.50;99.90;;;;;;5066234;28;20329;-81
2022/06/29 06:13:10;;;;;;;10.50;10.20;;;22.60;99.90;;;;;;5064984;28;20234;-81
2022/06/29 06:15:38;;;;;;;10.23;9.93;;;22.70;99.90;;;;;;5064971;28;20245;-81
2022/06/29 06:18:06;;;;;;;10.40;10.10;;;22.90;99.90;;;;;;5064165;28;20250;-81
2022/06/29 06:20:34;;;;;;;10.13;9.82;;;23.00;99.90;;;;;;5062855;28;20301;-80
2022/06/29 06:23:01;;;;;;;10.60;10.30;;;23.00;99.90;;;;;;5062977;28;20281;-81
2022/06/29 06:25:31;;;;;;;10.27;9.98;;;23.10;99.90;;;;;;5063747;28;20234;-81
2022/06/29 06:28:00;;;;;;;10.20;9.90;;;23.00;99.90;;;;;;5062937;28;20219;-82
2022/06/29 06:30:29;;;;;;;10.23;9.93;;;23.00;99.90;;;;;;5063330;28;20234;-82
2022/06/29 06:32:57;;;;;;;10.40;10.10;;;22.80;99.90;;;;;;5060470;28;20234;-81
2022/06/29 06:35:25;;;;;;;10.05;9.75;;;22.70;99.90;;;;;;5060896;28;20218;-82
2022/06/29 06:37:53;;;;;;;10.25;9.95;;;22.60;99.90;;;;;;5060991;28;20906;-81
2022/06/29 06:43:08;;;;;;;10.23;9.93;;;22.50;99.90;;;;;;5063206;28;20242;-81
2022/06/29 06:45:42;;;;;;;10.07;9.77;;;22.50;99.90;;;;;;5062584;28;20226;-81
2022/06/29 06:48:12;;;;;;;10.43;10.13;;;22.50;99.90;;;;;;5062497;28;20234;-81
2022/06/29 06:50:39;;;;;;;10.35;10.05;;;22.60;99.90;;;;;;5062004;28;20302;-81
2022/06/29 06:53:07;;;;;;;10.60;10.30;;;22.60;99.90;;;;;;5062610;28;20261;-82
2022/06/29 06:55:35;;;;;;;10.20;9.90;;;22.60;99.90;;;;;;5063760;28;20290;-81
2022/06/29 06:58:03;;;;;;;10.50;10.20;;;22.50;99.90;;;;;;5067009;28;20710;-82
2022/06/29 07:00:31;;;;;;;10.10;9.80;;;22.50;99.90;;;;;;5068340;28;20239;-82
2022/06/29 07:03:00;;;;;;;10.07;9.77;;;22.50;99.90;;;;;;5068417;28;20230;-81
2022/06/29 07:05:27;;;;;;;10.30;10.00;;;22.40;99.90;;;;;;5066375;28;20226;-81
2022/06/29 07:07:55;;;;;;;10.05;9.75;;;22.40;99.90;;;;;;5066631;28;20283;-81
2022/06/29 07:10:22;;;;;;;10.10;9.80;;;22.50;99.90;;;;;;5066295;28;20234;-83
2022/06/29 07:12:50;;;;;;;10.07;9.77;;;22.60;99.90;;;;;;5066609;28;20233;-82
2022/06/29 07:15:18;;;;;;;10.05;9.75;;;22.70;99.90;;;;;;5064712;28;20257;-82
2022/06/29 07:17:46;;;;;;;10.05;9.75;;;22.90;99.90;;;;;;5064684;28;20282;-82
2022/06/29 07:20:15;;;;;;;10.40;10.10;;;23.00;99.90;;;;;;5064928;28;20231;-82
2022/06/29 07:22:42;;;;;;;10.60;10.30;;;23.20;99.90;;;;;;5066474;28;20250;-82
2022/06/29 07:25:10;;;;;;;10.40;10.10;;;23.30;99.90;;;;;;5064798;28;20227;-82
2022/06/29 07:27:38;;;;;;;10.55;10.25;;;23.50;99.90;;;;;;5065479;28;20242;-81
2022/06/29 07:30:10;;;;;;;10.48;10.18;;;23.60;99.90;;;;;;5065616;28;20241;-81
2022/06/29 07:32:37;;;;;;;10.25;9.95;;;23.70;99.90;;;;;;5065802;28;20263;-80
2022/06/29 07:35:08;;;;;;;10.45;10.15;;;23.90;99.90;;;;;;5065667;28;20298;-81
2022/06/29 07:37:37;;;;;;;10.85;10.55;;;24.00;99.90;;;;;;5065846;28;20274;-81
2022/06/29 07:40:06;;;;;;;10.85;10.55;;;24.20;99.90;;;;;;5064924;28;20231;-81
2022/06/29 07:42:35;;;;;;;11.25;10.88;;;24.50;99.90;;;;;;5064923;28;20322;-81
2022/06/29 07:45:03;;;;;;;11.32;10.93;;;24.50;99.90;;;;;;5064776;28;20281;-81
2022/06/29 07:47:31;;;;;;;11.35;10.95;;;24.60;99.90;;;;;;5064873;28;20313;-81
2022/06/29 07:49:59;;;;;;;10.82;10.52;;;24.30;99.90;;;;;;5066477;28;20341;-81
2022/06/29 07:52:26;;;;;;;10.82;10.52;;;24.40;99.90;;;;;;5066185;28;20227;-80
2022/06/29 07:54:55;;;;;;;10.95;10.65;;;24.60;99.90;;;;;;5073562;28;20303;-79
2022/06/29 07:57:23;;;;;;;10.88;10.57;;;24.70;99.90;;;;;;5076821;28;20314;-82
2022/06/29 07:59:50;;;;;;;11.00;10.70;;;24.80;99.90;;;;;;5074778;28;20238;-82
2022/06/29 08:02:18;;;;;;;11.00;10.70;;;25.00;99.90;;;;;;5069650;28;20338;-81
2022/06/29 08:04:45;;;;;;;11.35;10.95;;;25.00;99.90;;;;;;5067802;28;20287;-82
2022/06/29 08:07:12;;;;;;;11.40;11.00;;;25.10;99.90;;;;;;5065665;28;20235;-81
2022/06/29 08:09:40;;;;;;;11.50;11.10;;;25.30;99.90;;;;;;5067271;28;20302;-80
2022/06/29 08:12:10;;;;;;;11.40;11.00;;;25.30;99.90;;;;;;5065813;28;20249;-81
2022/06/29 08:14:37;;;;;;;11.60;11.20;;;25.30;99.90;;;;;;5065975;28;20319;-81
2022/06/29 08:17:05;;;;;;;11.43;11.02;;;25.40;99.90;;;;;;5066482;28;20242;-81
2022/06/29 08:19:32;;;;;;;11.55;11.15;;;25.50;99.90;;;;;;5067460;28;20302;-81
2022/06/29 08:22:00;;;;;;;11.38;10.98;;;25.60;99.90;;;;;;5067964;28;20310;-81
2022/06/29 08:24:28;;;;;;;11.70;11.30;;;25.80;99.90;;;;;;5067046;28;20347;-81
2022/06/29 08:26:58;;;;;;;11.68;11.27;;;25.90;99.90;;;;;;5066725;28;20225;-81
2022/06/29 08:29:30;;;;;;;11.70;11.30;;;25.90;99.90;;;;;;5066245;28;21124;-82
2022/06/29 08:32:00;;;;;;;11.45;11.05;;;26.00;99.90;;;;;;5065878;28;20226;-82
2022/06/29 08:34:27;;;;;;;11.43;11.02;;;26.20;99.90;;;;;;5066477;28;20255;-81
2022/06/29 08:36:55;;;;;;;11.40;11.00;;;26.20;99.90;;;;;;5064895;28;20234;-82
2022/06/29 08:39:22;;;;;;;11.48;11.07;;;26.30;99.90;;;;;;5066243;28;20290;-82
2022/06/29 08:41:51;;;;;;;11.55;11.15;;;26.40;99.90;;;;;;5065536;28;20235;-81
2022/06/29 08:44:19;;;;;;;11.65;11.25;;;26.30;99.90;;;;;;5065419;28;20321;-81
2022/06/29 08:46:48;;;;;;;11.73;11.32;;;26.20;99.90;;;;;;5065918;28;20242;-82
2022/06/29 08:49:15;;;;;;;10.70;10.40;;;26.20;99.90;;;;;;5066426;28;20330;-82
2022/06/29 08:51:45;;;;;;;10.57;10.27;;;26.30;99.90;;;;;;5065215;28;20239;-83
2022/06/29 08:54:16;;;;;;;10.57;10.27;;;26.20;99.90;;;;;;5065906;28;20223;-82
2022/06/29 08:56:44;;;;;;;10.35;10.05;;;25.80;99.90;;;;;;5065427;28;20234;-82
2022/06/29 08:59:12;;;;;;;10.20;9.90;;;25.40;99.90;;;;;;5065133;28;20325;-82
2022/06/29 09:01:40;;;;;;;9.88;9.57;;;25.10;99.90;;;;;;5064445;28;20302;-82
2022/06/29 09:04:09;;;;;;;9.90;9.60;;;25.10;99.90;;;;;;5064093;28;20321;-83
2022/06/29 09:06:39;;;;;;;9.90;9.60;;;25.00;99.90;;;;;;5063057;28;20318;-82
2022/06/29 09:09:07;;;;;;;9.77;9.48;;;24.90;99.90;;;;;;5064784;28;20226;-82
2022/06/29 09:11:35;;;;;;;9.80;9.50;;;24.90;99.90;;;;;;5062986;28;20331;-82
2022/06/29 09:14:14;;;;;;;9.90;9.60;;;24.90;99.90;;;;;;5064248;28;20238;-81
2022/06/29 09:16:57;;;;;;;10.30;10.00;;;25.10;99.90;;;;;;5063480;28;20321;-82
2022/06/29 09:19:30;;;;;;;10.18;9.88;;;25.20;99.90;;;;;;5063547;28;20231;-82
2022/06/29 09:21:59;;;;;;;10.10;9.80;;;25.30;99.90;;;;;;5064934;28;20234;-81
2022/06/29 09:24:30;;;;;;;10.40;10.10;;;25.20;99.90;;;;;;5064300;28;20237;-82
2022/06/29 09:27:00;;;;;;;10.43;10.13;;;25.20;99.90;;;;;;5063957;28;20298;-82
2022/06/29 09:29:31;;;;;;;10.50;10.20;;;25.10;99.90;;;;;;5067013;28;20322;-81
2022/06/29 09:32:15;;;;;;;10.50;10.20;;;25.00;99.90;;;;;;5065601;28;20243;-82
2022/06/29 09:34:47;;;;;;;10.50;10.20;;;24.80;99.90;;;;;;5064965;28;20239;-82
2022/06/29 09:37:17;;;;;;;10.55;10.25;;;24.80;99.90;;;;;;5064295;28;20235;-82
2022/06/29 09:39:48;;;;;;;10.30;10.00;;;24.80;99.90;;;;;;5063245;28;20229;-83
2022/06/29 09:42:24;;;;;;;10.23;9.93;;;24.90;99.90;;;;;;5063523;28;20231;-82
2022/06/29 09:44:54;;;;;;;10.48;10.18;;;25.00;99.90;;;;;;5063265;28;20233;-82
2022/06/29 09:47:24;;;;;;;10.48;10.18;;;25.00;99.90;;;;;;5062186;28;20980;-82
2022/06/29 09:49:57;;;;;;;10.40;10.10;;;25.00;99.90;;;;;;5062400;28;20238;-82
2022/06/29 09:52:31;;;;;;;10.60;10.30;;;25.00;99.90;;;;;;5062896;28;20285;-82
2022/06/29 09:55:02;;;;;;;10.35;10.05;;;25.00;99.90;;;;;;5062743;28;20229;-82
2022/06/29 09:57:32;;;;;;;10.50;10.20;;;25.00;99.90;;;;;;5063394;28;20235;-82
2022/06/29 10:02:58;;;;;;;10.50;10.20;;;24.80;99.90;;;;;;5064105;28;20222;-82
2022/06/29 10:05:54;;;;;;;10.50;10.20;;;24.70;99.90;;;;;;5063671;28;20283;-82
2022/06/29 10:08:21;;;;;;;10.45;10.15;;;24.60;99.90;;;;;;5065963;28;20235;-83
2022/06/29 10:11:00;;;;;;;10.60;10.30;;;24.60;99.90;;;;;;5066438;28;20234;-82
2022/06/29 10:13:40;;;;;;;10.30;10.00;;;24.50;99.90;;;;;;5064128;28;20247;-82
2022/06/29 10:16:23;;;;;;;10.57;10.27;;;24.60;99.90;;;;;;5062516;28;20226;-82
2022/06/29 10:19:14;;;;;;;10.70;10.40;;;24.80;99.90;;;;;;5062789;28;20222;-82
2022/06/29 10:21:43;;;;;;;10.77;10.48;;;24.90;99.90;;;;;;5063551;28;20239;-82
2022/06/29 10:24:11;;;;;;;10.93;10.63;;;25.30;99.90;;;;;;5061919;28;20251;-82
2022/06/29 10:26:47;;;;;;;10.90;10.60;;;25.70;99.90;;;;;;5061509;28;20270;-82
2022/06/29 10:29:37;;;;;;;10.75;10.45;;;26.30;99.90;;;;;;5061852;28;20262;-82
2022/06/29 10:32:16;;;;;;;10.60;10.30;;;26.70;99.90;;;;;;5061569;28;20337;-82
2022/06/29 10:37:33;;;;;;;10.70;10.40;;;26.80;99.90;;;;;;5060666;28;20219;-82
2022/06/29 10:40:04;;;;;;;10.90;10.60;;;26.60;99.90;;;;;;5062501;28;20234;-82
2022/06/29 10:45:26;;;;;;;10.68;10.38;;;27.70;99.90;;;;;;5062984;28;20223;-82
2022/06/29 10:48:24;;;;;;;10.60;10.30;;;28.10;99.90;;;;;;5061904;28;20262;-82
2022/06/29 10:50:52;;;;;;;10.57;10.27;;;28.00;99.90;;;;;;5061736;28;20226;-82
2022/06/29 10:53:22;;;;;;;10.65;10.35;;;27.80;99.90;;;;;;5063094;28;20269;-82
2022/06/29 10:55:54;;;;;;;10.32;10.02;;;27.90;99.90;;;;;;5063153;28;20267;-82
2022/06/29 10:58:23;;;;;;;10.57;10.27;;;28.30;99.90;;;;;;5069363;28;20234;-82
2022/06/29 11:00:53;;;;;;;10.30;10.00;;;28.70;99.90;;;;;;5070399;28;20218;-82
2022/06/29 11:03:25;;;;;;;9.95;9.65;;;29.00;99.90;;;;;;5070142;28;20234;-82
2022/06/29 11:17:39;;;;;;;10.60;10.30;;;29.20;99.90;;;;;;5072911;28;20230;-89
2022/06/29 11:19:55;;;;;;;10.90;10.60;;;29.70;99.90;;;;;;5055371;28;20237;-88
2022/06/29 11:22:24;;;;;;;10.55;10.25;;;29.90;99.90;;;;;;5057196;28;20226;-87
2022/06/29 11:24:58;;;;;;;10.77;10.48;;;30.10;99.90;;;;;;5056418;28;20286;-88
2022/06/29 11:27:35;;;;;;;10.50;10.20;;;30.10;99.90;;;;;;5055380;28;20239;-88
2022/06/29 11:30:11;;;;;;;10.98;10.68;;;29.90;99.90;;;;;;5055836;28;20231;-88
2022/06/29 11:32:45;;;;;;;10.75;10.45;;;29.40;99.90;;;;;;5055418;28;20238;-88
2022/06/29 11:35:15;;;;;;;10.80;10.50;;;29.40;99.90;;;;;;5055943;28;20223;-89
2022/06/29 11:38:01;;;;;;;10.90;10.60;;;29.40;99.90;;;;;;5056733;28;20235;-87
2022/06/29 11:40:35;;;;;;;10.70;10.40;;;29.40;99.90;;;;;;5072782;28;20217;-87
2022/06/29 11:43:08;;;;;;;10.40;10.10;;;29.60;99.90;;;;;;5081619;28;20222;-88
2022/06/29 11:45:49;;;;;;;10.40;10.10;;;29.50;99.90;;;;;;5078215;28;20313;-87
2022/06/29 11:48:19;;;;;;;10.57;10.27;;;29.20;99.90;;;;;;5059562;28;20326;-88
2022/06/29 11:50:52;;;;;;;10.40;10.10;;;29.10;99.90;;;;;;5059518;28;20297;-88
2022/06/29 11:53:44;;;;;;;10.77;10.48;;;29.10;99.90;;;;;;5059212;28;20235;-88
2022/06/29 11:56:23;;;;;;;10.80;10.50;;;29.00;99.90;;;;;;5058754;28;20226;-88
2022/06/29 11:59:01;;;;;;;10.77;10.48;;;29.30;99.90;;;;;;5059576;28;20273;-88
2022/06/29 12:01:29;;;;;;;10.93;10.63;;;29.60;99.90;;;;;;5059308;28;20230;-88
2022/06/29 12:03:59;;;;;;;10.85;10.55;;;29.90;99.90;;;;;;5059549;28;20281;-88
2022/06/29 12:06:38;;;;;;;10.95;10.65;;;30.30;99.90;;;;;;5058990;28;20285;-89
2022/06/29 12:09:08;;;;;;;10.70;10.40;;;30.90;99.90;;;;;;5058460;28;20238;-88
2022/06/29 12:11:38;;;;;;;10.80;10.50;;;31.30;99.90;;;;;;5064050;28;20266;-88
2022/06/29 12:14:06;;;;;;;11.02;10.73;;;31.70;99.90;;;;;;5068878;28;20218;-88
2022/06/29 12:16:34;;;;;;;10.65;10.35;;;31.30;99.90;;;;;;5066974;28;20231;-88
2022/06/29 12:19:04;;;;;;;10.88;10.57;;;31.60;99.90;;;;;;5062402;28;20230;-88
2022/06/29 12:21:37;;;;;;;10.98;10.68;;;32.00;99.90;;;;;;5061452;28;20231;-89
2022/06/29 12:24:13;;;;;;;10.50;10.20;;;32.00;99.90;;;;;;5059858;28;20231;-88
2022/06/29 12:26:42;;;;;;;10.60;10.30;;;31.70;99.90;;;;;;5058730;28;20237;-88
2022/06/29 12:29:13;;;;;;;10.38;10.07;;;31.40;99.90;;;;;;5059220;28;20757;-89
2022/06/29 12:31:44;;;;;;;10.05;9.75;;;31.10;99.90;;;;;;5058906;28;20235;-89
2022/06/29 12:34:13;;;;;;;10.10;9.80;;;30.80;99.90;;;;;;5057869;28;20293;-89
2022/06/29 12:36:41;;;;;;;9.90;9.60;;;30.60;99.90;;;;;;5057989;28;20223;-88
2022/06/29 12:39:30;;;;;;;10.65;10.35;;;30.30;99.90;;;;;;5058019;28;20266;-88
2022/06/29 12:42:00;;;;;;;10.50;10.20;;;30.20;99.90;;;;;;5058043;28;20710;-88
2022/06/29 12:44:29;;;;;;;10.20;9.90;;;30.10;99.90;;;;;;5058352;28;20231;-89
2022/06/29 12:47:00;;;;;;;10.45;10.15;;;30.00;99.90;;;;;;5061359;28;20326;-89
2022/06/29 12:49:30;;;;;;;10.65;10.35;;;30.20;99.90;;;;;;5058533;28;20230;-88
2022/06/29 12:52:02;;;;;;;9.90;9.60;;;30.10;99.90;;;;;;5069719;28;20231;-89
2022/06/29 12:54:30;;;;;;;9.90;9.60;;;29.90;99.90;;;;;;5074470;28;20211;-88
2022/06/29 12:56:59;;;;;;;9.95;9.65;;;29.70;99.90;;;;;;5067498;28;20236;-88
2022/06/29 12:59:27;;;;;;;9.95;9.65;;;29.70;99.90;;;;;;5060002;28;20226;-88
2022/06/29 13:01:55;;;;;;;9.85;9.55;;;29.50;99.90;;;;;;5058295;28;20227;-88
2022/06/29 13:04:38;;;;;;;9.80;9.50;;;29.40;99.90;;;;;;5057856;28;20231;-88
2022/06/29 13:07:25;;;;;;;9.52;9.23;;;29.40;99.90;;;;;;5057887;28;20305;-88
2022/06/29 13:09:53;;;;;;;9.80;9.50;;;29.30;99.90;;;;;;5057250;28;20231;-89
2022/06/29 13:12:45;;;;;;;10.25;9.95;;;29.30;99.90;;;;;;5057850;28;20234;-89
2022/06/29 13:15:14;;;;;;;10.90;10.60;;;29.20;99.90;;;;;;5056956;28;20227;-88
2022/06/29 13:17:42;;;;;;;10.57;10.27;;;29.20;99.90;;;;;;5057508;28;20251;-88
2022/06/29 13:20:12;;;;;;;10.30;10.00;;;29.10;99.90;;;;;;5063042;28;20254;-88